createdAt,value
2022-08-20T00:00:46.331Z,18.67
2022-08-20T00:03:36.800Z,18.49
2022-08-20T00:06:13.324Z,18.36
2022-08-20T00:08:39.991Z,18.14
2022-08-20T00:11:09.802Z,17.97
2022-08-20T00:13:43.492Z,17.81
2022-08-20T00:16:10.515Z,17.56
2022-08-20T00:18:37.484Z,17.62
2022-08-20T00:21:08.468Z,17.65
2022-08-20T00:23:44.694Z,17.29
2022-08-20T00:26:12.538Z,17.72
2022-08-20T00:28:39.777Z,17.92
2022-08-20T00:31:09.602Z,17.92
2022-08-20T00:33:37.083Z,18.00
2022-08-20T00:36:06.510Z,18.03
2022-08-20T00:38:37.818Z,18.20
2022-08-20T00:41:05.916Z,18.11
2022-08-20T00:43:40.432Z,18.26
2022-08-20T00:46:17.980Z,18.17
2022-08-20T00:48:50.440Z,18.25
2022-08-20T00:51:38.277Z,18.16
2022-08-20T00:54:14.007Z,18.09
2022-08-20T00:56:43.849Z,18.13
2022-08-20T00:59:17.286Z,18.06
2022-08-20T01:01:55.167Z,18.00
2022-08-20T01:04:25.308Z,17.86
2022-08-20T01:06:51.963Z,17.98
2022-08-20T01:09:18.404Z,18.03
2022-08-20T01:12:07.606Z,18.02
2022-08-20T01:14:34.422Z,18.02
2022-08-20T01:17:05.033Z,17.94
2022-08-20T01:19:42.063Z,17.97
2022-08-20T01:22:28.177Z,17.99
2022-08-20T01:25:14.213Z,17.93
2022-08-20T01:27:42.599Z,17.65
2022-08-20T01:30:10.581Z,17.59
2022-08-20T01:32:37.157Z,17.45
2022-08-20T01:35:05.611Z,17.41
2022-08-20T01:37:32.107Z,17.50
2022-08-20T01:39:58.968Z,17.60
2022-08-20T01:42:59.019Z,17.63
2022-08-20T01:45:30.305Z,17.51
2022-08-20T01:47:58.994Z,17.48
2022-08-20T01:50:28.712Z,17.72
2022-08-20T01:53:04.342Z,17.86
2022-08-20T01:55:31.639Z,17.94
2022-08-20T01:57:59.191Z,17.80
2022-08-20T02:00:25.878Z,17.97
2022-08-20T02:02:52.523Z,17.98
2022-08-20T02:05:20.088Z,17.79
2022-08-20T02:07:47.229Z,17.57
2022-08-20T02:10:16.939Z,17.49
2022-08-20T02:12:43.540Z,17.45
2022-08-20T02:15:11.580Z,17.41
2022-08-20T02:17:39.892Z,17.44
2022-08-20T02:20:27.360Z,17.41
2022-08-20T02:22:58.596Z,17.47
2022-08-20T02:25:28.315Z,17.63
2022-08-20T02:27:58.109Z,17.75
2022-08-20T02:30:33.224Z,17.63
2022-08-20T02:33:02.630Z,17.49
2022-08-20T02:39:41.548Z,17.83
2022-08-20T02:42:09.274Z,17.72
2022-08-20T02:44:35.758Z,17.64
2022-08-20T02:47:02.182Z,17.49
2022-08-20T02:49:28.631Z,17.40
2022-08-20T02:51:55.137Z,17.29
2022-08-20T02:54:21.578Z,17.20
2022-08-20T02:56:48.014Z,17.33
2022-08-20T02:59:19.553Z,17.38
2022-08-20T03:01:46.684Z,17.50
2022-08-20T03:04:26.134Z,17.62
2022-08-20T03:06:52.890Z,17.70
2022-08-20T03:09:19.368Z,17.82
2022-08-20T03:11:45.830Z,17.93
2022-08-20T03:14:12.257Z,17.96
2022-08-20T03:16:38.716Z,17.99
2022-08-20T03:19:05.117Z,17.97
2022-08-20T03:21:32.259Z,17.74
2022-08-20T03:23:58.673Z,17.36
2022-08-20T03:26:25.140Z,17.73
2022-08-20T03:28:51.577Z,17.67
2022-08-20T03:31:18.499Z,17.76
2022-08-20T03:33:53.218Z,17.84
2022-08-20T03:36:28.080Z,17.85
2022-08-20T03:39:01.693Z,17.81
2022-08-20T03:41:28.888Z,17.60
2022-08-20T03:43:55.760Z,17.68
2022-08-20T03:46:23.767Z,17.64
2022-08-20T03:48:59.529Z,17.56
2022-08-20T03:51:31.655Z,17.59
2022-08-20T03:54:10.051Z,17.65
2022-08-20T03:56:36.465Z,17.78
2022-08-20T03:59:03.110Z,17.82
2022-08-20T04:01:44.530Z,17.98
2022-08-20T04:04:14.936Z,17.97
2022-08-20T04:06:42.775Z,17.93
2022-08-20T04:09:11.802Z,17.99
2022-08-20T04:11:39.229Z,17.93
2022-08-20T04:14:05.656Z,18.04
2022-08-20T04:16:33.045Z,18.07
2022-08-20T04:19:02.231Z,18.16
2022-08-20T04:21:32.566Z,18.22
2022-08-20T04:24:01.212Z,18.26
2022-08-20T04:26:27.860Z,18.26
2022-08-20T04:28:55.865Z,18.30
2022-08-20T04:31:33.019Z,18.32
2022-08-20T04:34:01.399Z,18.40
2022-08-20T04:36:27.979Z,18.32
2022-08-20T04:38:54.429Z,18.22
2022-08-20T04:41:23.236Z,18.08
2022-08-20T04:43:53.949Z,18.07
2022-08-20T04:46:21.854Z,18.12
2022-08-20T04:48:48.699Z,18.04
2022-08-20T04:51:16.539Z,18.05
2022-08-20T04:53:43.074Z,18.09
2022-08-20T04:56:09.690Z,18.07
2022-08-20T04:58:38.122Z,18.15
2022-08-20T05:01:09.730Z,18.19
2022-08-20T05:03:38.534Z,18.19
2022-08-20T05:06:06.165Z,18.30
2022-08-20T05:08:33.325Z,18.27
2022-08-20T05:11:32.984Z,18.40
2022-08-20T05:13:46.449Z,18.42
2022-08-20T05:16:15.088Z,18.38
2022-08-20T05:18:42.479Z,18.48
2022-08-20T05:21:08.948Z,18.55
2022-08-20T05:23:38.881Z,18.51
2022-08-20T05:26:09.119Z,18.53
2022-08-20T05:28:54.454Z,18.59
2022-08-20T05:31:31.839Z,18.55
2022-08-20T05:34:01.801Z,18.71
2022-08-20T05:36:28.362Z,18.74
2022-08-20T05:38:54.824Z,18.75
2022-08-20T05:41:27.738Z,18.80
2022-08-20T05:44:00.539Z,18.85
2022-08-20T05:46:27.682Z,18.88
2022-08-20T05:48:54.169Z,18.94
2022-08-20T05:51:20.574Z,19.00
2022-08-20T05:53:47.120Z,19.00
2022-08-20T05:56:13.940Z,19.05
2022-08-20T05:58:40.441Z,19.04
2022-08-20T06:01:06.979Z,18.92
2022-08-20T06:03:51.995Z,19.02
2022-08-20T06:06:44.639Z,18.92
2022-08-20T06:09:04.957Z,19.04
2022-08-20T06:11:36.421Z,19.05
2022-08-20T06:14:03.910Z,19.10
2022-08-20T06:16:30.647Z,19.09
2022-08-20T06:18:58.572Z,19.08
2022-08-20T06:21:25.676Z,19.06
2022-08-20T06:23:57.056Z,18.99
2022-08-20T06:26:30.350Z,19.03
2022-08-20T06:28:59.188Z,19.00
2022-08-20T06:31:27.251Z,19.07
2022-08-20T06:33:54.401Z,19.22
2022-08-20T06:36:21.335Z,19.26
2022-08-20T06:38:48.063Z,19.32
2022-08-20T06:41:14.652Z,19.37
2022-08-20T06:43:41.061Z,19.33
2022-08-20T06:46:08.180Z,19.43
2022-08-20T06:48:34.932Z,19.37
2022-08-20T06:51:01.530Z,19.52
2022-08-20T06:53:28.881Z,19.58
2022-08-20T06:55:58.742Z,19.64
2022-08-20T06:58:30.468Z,19.68
2022-08-20T07:01:10.096Z,19.69
2022-08-20T07:03:38.550Z,19.68
2022-08-20T07:06:05.705Z,19.75
2022-08-20T07:08:32.780Z,19.70
2022-08-20T07:10:59.648Z,19.65
2022-08-20T07:13:26.174Z,19.67
2022-08-20T07:15:54.220Z,19.64
2022-08-20T07:18:28.168Z,19.76
2022-08-20T07:20:57.257Z,19.70
2022-08-20T07:23:27.073Z,19.85
2022-08-20T07:25:55.613Z,19.94
2022-08-20T07:28:25.814Z,20.03
2022-08-20T07:31:13.299Z,20.14
2022-08-20T07:33:41.661Z,20.43
2022-08-20T07:36:09.446Z,20.69
2022-08-20T07:38:36.797Z,20.92
2022-08-20T07:41:13.262Z,21.07
2022-08-20T07:43:40.926Z,21.22
2022-08-20T07:46:08.962Z,20.82
2022-08-20T07:48:39.821Z,21.29
2022-08-20T07:51:08.296Z,21.32
2022-08-20T07:53:37.871Z,21.31
2022-08-20T07:56:10.280Z,21.31
2022-08-20T07:58:41.507Z,21.29
2022-08-20T08:01:08.200Z,21.28
2022-08-20T08:03:39.463Z,21.26
2022-08-20T08:06:19.667Z,21.31
2022-08-20T08:09:07.906Z,21.31
2022-08-20T08:11:38.190Z,21.20
2022-08-20T08:14:08.113Z,21.23
2022-08-20T08:16:36.281Z,21.24
2022-08-20T08:19:06.529Z,21.28
2022-08-20T08:21:33.067Z,21.32
2022-08-20T08:23:59.506Z,21.36
2022-08-20T08:26:28.592Z,21.42
2022-08-20T08:28:55.051Z,21.50
2022-08-20T08:31:21.525Z,21.53
2022-08-20T08:33:48.280Z,21.63
2022-08-20T08:36:15.905Z,21.73
2022-08-20T08:38:44.644Z,21.82
2022-08-20T08:41:32.006Z,21.91
2022-08-20T08:44:21.278Z,21.81
2022-08-20T08:46:49.616Z,21.99
2022-08-20T08:49:38.018Z,22.05
2022-08-20T08:52:28.249Z,22.12
2022-08-20T08:55:07.369Z,22.17
2022-08-20T08:57:34.244Z,22.33
2022-08-20T09:00:10.234Z,22.43
2022-08-20T09:02:38.798Z,22.48
2022-08-20T09:05:15.410Z,22.57
2022-08-20T09:07:47.256Z,22.48
2022-08-20T09:10:14.096Z,22.72
2022-08-20T09:12:43.349Z,22.78
2022-08-20T09:15:19.070Z,22.73
2022-08-20T09:17:45.504Z,22.86
2022-08-20T09:20:12.064Z,22.80
2022-08-20T09:22:38.661Z,23.01
2022-08-20T09:25:05.597Z,23.34
2022-08-20T09:27:32.033Z,23.52
2022-08-20T09:29:58.808Z,23.71
2022-08-20T09:32:25.551Z,24.02
2022-08-20T09:34:58.854Z,24.24
2022-08-20T09:37:28.257Z,24.44
2022-08-20T09:39:55.571Z,24.59
2022-08-20T09:42:28.506Z,24.53
2022-08-20T09:44:55.679Z,24.62
2022-08-20T09:47:22.813Z,24.64
2022-08-20T09:49:49.724Z,24.78
2022-08-20T09:52:40.853Z,25.10
2022-08-20T09:55:33.702Z,25.18
2022-08-20T09:58:02.946Z,25.21
2022-08-20T10:00:29.701Z,25.30
2022-08-20T10:02:56.194Z,25.29
2022-08-20T10:05:22.824Z,25.27
2022-08-20T10:07:49.354Z,25.26
2022-08-20T10:10:16.172Z,25.21
2022-08-20T10:12:43.238Z,25.26
2022-08-20T10:15:10.666Z,25.31
2022-08-20T10:17:39.408Z,25.41
2022-08-20T10:20:07.862Z,25.48
2022-08-20T10:22:35.258Z,25.72
2022-08-20T10:25:01.889Z,25.64
2022-08-20T10:27:28.355Z,25.90
2022-08-20T10:29:54.788Z,25.82
2022-08-20T10:32:21.282Z,25.81
2022-08-20T10:34:47.784Z,25.94
2022-08-20T10:37:17.885Z,25.97
2022-08-20T10:39:45.136Z,26.00
2022-08-20T10:42:11.743Z,26.09
2022-08-20T10:44:38.345Z,26.40
2022-08-20T10:47:16.601Z,26.72
2022-08-20T10:49:43.312Z,26.68
2022-08-20T10:52:10.013Z,26.60
2022-08-20T10:54:36.546Z,26.83
2022-08-20T10:57:04.078Z,26.67
2022-08-20T10:59:30.710Z,26.79
2022-08-20T11:01:57.289Z,26.87
2022-08-20T11:04:23.718Z,26.97
2022-08-20T11:06:50.147Z,27.08
2022-08-20T11:09:16.665Z,26.94
2022-08-20T11:11:43.095Z,26.93
2022-08-20T11:14:09.601Z,27.16
2022-08-20T11:16:36.071Z,27.27
2022-08-20T11:19:02.481Z,27.30
2022-08-20T11:21:28.921Z,27.19
2022-08-20T11:23:55.404Z,27.31
2022-08-20T11:26:24.204Z,27.29
2022-08-20T11:28:51.298Z,27.39
2022-08-20T11:31:18.043Z,27.44
2022-08-20T11:33:44.451Z,27.34
2022-08-20T11:36:10.897Z,27.02
2022-08-20T11:38:37.399Z,26.87
2022-08-20T11:41:03.797Z,26.73
2022-08-20T11:43:30.240Z,26.69
2022-08-20T11:45:57.684Z,26.90
2022-08-20T11:48:24.114Z,26.76
2022-08-20T11:50:51.601Z,26.95
2022-08-20T11:53:18.405Z,27.05
2022-08-20T11:55:46.728Z,27.18
2022-08-20T11:58:14.321Z,27.12
2022-08-20T12:00:41.090Z,27.15
2022-08-20T12:03:09.398Z,26.95
2022-08-20T12:05:42.808Z,26.59
2022-08-20T12:08:09.705Z,26.58
2022-08-20T12:10:37.990Z,26.64
2022-08-20T12:13:05.375Z,26.77
2022-08-20T12:15:33.610Z,26.83
2022-08-20T12:18:01.153Z,26.84
2022-08-20T12:20:27.707Z,26.94
2022-08-20T12:22:54.189Z,26.90
2022-08-20T12:25:20.966Z,27.03
2022-08-20T12:27:47.469Z,26.97
2022-08-20T12:30:17.415Z,26.96
2022-08-20T12:32:44.710Z,26.80
2022-08-20T12:35:12.329Z,26.84
2022-08-20T12:37:39.463Z,26.85
2022-08-20T12:40:10.691Z,26.92
2022-08-20T12:42:37.726Z,27.00
2022-08-20T12:45:04.622Z,26.90
2022-08-20T12:47:34.353Z,26.84
2022-08-20T12:50:10.409Z,26.64
2022-08-20T12:52:37.684Z,26.68
2022-08-20T12:55:06.250Z,26.63
2022-08-20T12:57:38.388Z,26.88
2022-08-20T13:00:16.910Z,26.76
2022-08-20T13:02:46.557Z,26.79
2022-08-20T13:05:14.095Z,26.53
2022-08-20T13:07:41.947Z,26.87
2022-08-20T13:10:10.942Z,26.97
2022-08-20T13:12:37.443Z,26.74
2022-08-20T13:15:05.022Z,27.15
2022-08-20T13:17:39.103Z,27.02
2022-08-20T13:20:10.789Z,26.73
2022-08-20T13:22:38.356Z,26.65
2022-08-20T13:25:06.323Z,26.56
2022-08-20T13:27:32.865Z,26.70
2022-08-20T13:29:59.435Z,26.56
2022-08-20T13:32:26.272Z,26.78
2022-08-20T13:34:52.915Z,26.77
2022-08-20T13:37:25.278Z,26.92
2022-08-20T13:39:53.318Z,26.89
2022-08-20T13:42:19.937Z,26.73
2022-08-20T13:44:46.402Z,26.74
2022-08-20T13:47:16.869Z,26.88
2022-08-20T13:49:44.053Z,26.90
2022-08-20T13:52:11.402Z,26.72
2022-08-20T13:54:38.459Z,26.72
2022-08-20T13:57:13.617Z,26.65
2022-08-20T13:59:44.041Z,26.68
2022-08-20T14:02:12.105Z,26.57
2022-08-20T14:04:39.353Z,26.71
2022-08-20T14:07:20.289Z,26.78
2022-08-20T14:09:49.741Z,26.61
2022-08-20T14:12:17.687Z,26.60
2022-08-20T14:14:44.469Z,26.62
2022-08-20T14:17:33.530Z,26.73
2022-08-20T14:20:10.188Z,26.78
2022-08-20T14:22:37.249Z,26.70
2022-08-20T14:25:05.666Z,26.77
2022-08-20T14:27:33.716Z,26.90
2022-08-20T14:30:01.138Z,26.98
2022-08-20T14:32:28.336Z,26.98
2022-08-20T14:34:57.072Z,27.01
2022-08-20T14:37:27.212Z,26.98
2022-08-20T14:39:59.490Z,27.11
2022-08-20T14:42:28.138Z,27.09
2022-08-20T14:44:56.584Z,26.99
2022-08-20T14:47:27.706Z,26.94
2022-08-20T14:49:56.575Z,26.92
2022-08-20T14:52:28.177Z,26.88
2022-08-20T14:54:55.425Z,26.98
2022-08-20T14:57:21.934Z,26.87
2022-08-20T14:59:48.968Z,26.73
2022-08-20T15:02:17.556Z,26.79
2022-08-20T15:04:45.587Z,26.78
2022-08-20T15:07:26.589Z,26.89
2022-08-20T15:09:54.040Z,26.90
2022-08-20T15:12:20.597Z,26.90
2022-08-20T15:14:48.054Z,26.84
2022-08-20T15:17:26.969Z,26.96
2022-08-20T15:19:53.969Z,26.87
2022-08-20T15:22:22.093Z,26.85
2022-08-20T15:24:48.803Z,26.69
2022-08-20T15:27:22.422Z,26.71
2022-08-20T15:29:50.305Z,26.48
2022-08-20T15:32:16.753Z,26.29
2022-08-20T15:34:43.266Z,26.44
2022-08-20T15:37:19.162Z,26.56
2022-08-20T15:39:46.736Z,26.62
2022-08-20T15:42:14.044Z,26.64
2022-08-20T15:44:42.058Z,26.62
2022-08-20T15:47:14.074Z,26.57
2022-08-20T15:49:41.026Z,26.51
2022-08-20T15:52:07.649Z,26.23
2022-08-20T15:54:34.966Z,26.15
2022-08-20T15:57:14.623Z,26.28
2022-08-20T15:59:53.726Z,26.29
2022-08-20T16:02:52.155Z,26.49
2022-08-20T16:05:44.953Z,26.33
2022-08-20T16:08:31.279Z,26.17
2022-08-20T16:11:28.736Z,26.13
2022-08-20T16:14:01.669Z,26.15
2022-08-20T16:16:40.698Z,26.19
2022-08-20T16:19:11.606Z,26.10
2022-08-20T16:21:43.873Z,26.02
2022-08-20T16:24:12.877Z,25.40
2022-08-20T16:27:05.025Z,24.92
2022-08-20T16:29:49.861Z,25.36
2022-08-20T16:32:25.621Z,25.37
2022-08-20T16:34:56.330Z,25.51
2022-08-20T16:38:07.970Z,25.41
2022-08-20T16:40:43.298Z,25.55
2022-08-20T16:43:19.822Z,25.50
2022-08-20T16:45:55.731Z,25.45
2022-08-20T16:48:22.765Z,25.38
2022-08-20T16:51:08.853Z,25.14
2022-08-20T16:53:35.715Z,25.18
2022-08-20T16:56:02.455Z,24.99
2022-08-20T16:58:28.986Z,25.00
2022-08-20T17:01:26.025Z,25.04
2022-08-20T17:03:52.571Z,24.99
2022-08-20T17:06:43.239Z,24.92
2022-08-20T17:09:20.167Z,24.71
2022-08-20T17:11:48.021Z,24.70
2022-08-20T17:14:18.094Z,24.58
2022-08-20T17:16:50.785Z,24.28
2022-08-20T17:19:28.534Z,24.14
2022-08-20T17:21:56.629Z,24.30
2022-08-20T17:24:27.049Z,24.32
2022-08-20T17:27:10.769Z,24.03
2022-08-20T17:29:50.295Z,24.24
2022-08-20T17:32:28.952Z,24.16
2022-08-20T17:34:58.719Z,24.21
2022-08-20T17:37:29.748Z,24.32
2022-08-20T17:40:17.664Z,24.44
2022-08-20T17:42:54.013Z,24.41
2022-08-20T17:45:42.366Z,24.33
2022-08-20T17:48:16.631Z,24.29
2022-08-20T17:50:43.972Z,24.33
2022-08-20T17:53:33.090Z,24.29
2022-08-20T17:56:03.749Z,24.24
2022-08-20T17:58:55.021Z,24.26
2022-08-20T18:01:23.365Z,24.25
2022-08-20T18:03:52.205Z,24.29
2022-08-20T18:06:44.257Z,24.30
2022-08-20T18:09:25.860Z,24.32
2022-08-20T18:12:34.398Z,24.31
2022-08-20T18:15:24.259Z,24.27
2022-08-20T18:18:28.645Z,24.24
2022-08-20T18:21:14.202Z,24.15
2022-08-20T18:23:57.622Z,24.08
2022-08-20T18:26:31.851Z,23.97
2022-08-20T18:29:03.562Z,23.90
2022-08-20T18:31:55.654Z,23.81
2022-08-20T18:34:28.166Z,23.66
2022-08-20T18:36:59.817Z,23.50
2022-08-20T18:39:33.429Z,23.41
2022-08-20T18:42:05.458Z,23.23
2022-08-20T18:44:44.133Z,23.09
2022-08-20T18:47:25.977Z,22.98
2022-08-20T18:50:24.341Z,22.89
2022-08-20T18:53:10.942Z,22.79
2022-08-20T18:56:00.292Z,22.67
2022-08-20T18:58:49.887Z,22.12
2022-08-20T19:01:19.310Z,21.87
2022-08-20T19:03:48.822Z,21.77
2022-08-20T19:06:15.170Z,21.79
2022-08-20T19:08:56.698Z,21.77
2022-08-20T19:11:49.245Z,21.86
2022-08-20T19:14:37.567Z,21.88
2022-08-20T19:17:23.450Z,21.84
2022-08-20T19:20:02.026Z,21.68
2022-08-20T19:22:29.677Z,21.56
2022-08-20T19:24:58.634Z,21.47
2022-08-20T19:27:27.006Z,21.43
2022-08-20T19:29:56.877Z,21.35
2022-08-20T19:32:30.293Z,21.28
2022-08-20T19:35:03.691Z,21.31
2022-08-20T19:37:50.521Z,21.03
2022-08-20T19:40:28.487Z,20.90
2022-08-20T19:42:57.996Z,20.84
2022-08-20T19:45:32.334Z,20.48
2022-08-20T19:48:27.062Z,20.12
2022-08-20T19:51:32.578Z,20.26
2022-08-20T19:54:00.785Z,20.23
2022-08-20T19:56:27.881Z,20.13
2022-08-20T19:59:06.493Z,20.11
2022-08-20T20:01:34.019Z,20.03
2022-08-20T20:04:03.684Z,19.82
2022-08-20T20:06:34.799Z,19.76
2022-08-20T20:09:08.542Z,19.71
2022-08-20T20:11:47.364Z,19.55
2022-08-20T20:14:16.252Z,19.53
2022-08-20T20:16:43.075Z,19.52
2022-08-20T20:19:28.226Z,19.49
2022-08-20T20:22:18.962Z,19.45
2022-08-20T20:24:56.676Z,19.43
2022-08-20T20:27:26.477Z,19.50
2022-08-20T20:30:10.467Z,19.35
2022-08-20T20:32:42.009Z,19.34
2022-08-20T20:35:08.781Z,19.31
2022-08-20T20:37:49.656Z,19.31
2022-08-20T20:40:30.552Z,19.07
2022-08-20T20:43:05.891Z,19.21
2022-08-20T20:45:39.732Z,19.10
2022-08-20T20:48:15.527Z,19.07
2022-08-20T20:50:42.448Z,19.03
2022-08-20T20:53:09.129Z,18.79
2022-08-20T20:55:37.704Z,18.69
2022-08-20T20:58:04.556Z,18.58
2022-08-20T21:00:34.032Z,18.51
2022-08-20T21:03:04.068Z,18.52
2022-08-20T21:05:32.122Z,18.59
2022-08-20T21:08:03.129Z,18.63
2022-08-20T21:10:34.834Z,18.55
2022-08-20T21:13:03.385Z,18.63
2022-08-20T21:15:31.840Z,18.51
2022-08-20T21:18:00.705Z,18.42
2022-08-20T21:20:27.833Z,18.24
2022-08-20T21:22:57.489Z,18.03
2022-08-20T21:25:25.358Z,17.92
2022-08-20T21:27:52.243Z,17.70
2022-08-20T21:30:23.110Z,17.77
2022-08-20T21:32:50.071Z,17.52
2022-08-20T21:35:17.231Z,17.62
2022-08-20T21:37:43.888Z,17.42
2022-08-20T21:40:11.702Z,17.58
2022-08-20T21:42:40.110Z,17.49
2022-08-20T21:45:08.559Z,17.05
2022-08-20T21:47:35.980Z,17.15
2022-08-20T21:50:03.710Z,17.07
2022-08-20T21:52:30.275Z,16.89
2022-08-20T21:54:56.835Z,16.61
2022-08-20T21:57:27.533Z,16.37
2022-08-20T21:59:55.022Z,16.27
2022-08-20T22:02:22.066Z,16.13
2022-08-20T22:04:53.772Z,15.79
2022-08-20T22:07:20.903Z,15.87
2022-08-20T22:09:47.333Z,15.87
2022-08-20T22:12:24.731Z,16.01
2022-08-20T22:14:51.258Z,15.92
2022-08-20T22:17:18.242Z,15.81
2022-08-20T22:19:44.905Z,15.99
2022-08-20T22:22:13.180Z,15.98
2022-08-20T22:24:39.675Z,16.12
2022-08-20T22:27:07.320Z,16.11
2022-08-20T22:29:34.189Z,15.98
2022-08-20T22:32:01.005Z,15.96
2022-08-20T22:34:30.515Z,15.83
2022-08-20T22:36:58.333Z,15.89
2022-08-20T22:39:24.849Z,15.95
2022-08-20T22:41:51.404Z,15.95
2022-08-20T22:44:17.871Z,15.88
2022-08-20T22:46:48.816Z,15.90
2022-08-20T22:49:18.275Z,15.87
2022-08-20T22:51:44.893Z,15.82
2022-08-20T22:54:15.355Z,15.82
2022-08-20T22:56:42.729Z,15.46
2022-08-20T22:59:10.448Z,15.47
2022-08-20T23:01:37.633Z,15.31
2022-08-20T23:04:13.154Z,15.14
2022-08-20T23:06:39.882Z,14.85
2022-08-20T23:09:06.465Z,14.66
2022-08-20T23:11:33.489Z,14.70
2022-08-20T23:14:00.038Z,14.45
2022-08-20T23:16:26.533Z,14.38
2022-08-20T23:18:53.096Z,14.33
2022-08-20T23:21:19.825Z,14.26
2022-08-20T23:23:46.908Z,14.24
2022-08-20T23:26:18.854Z,14.50
2022-08-20T23:28:45.761Z,14.53
2022-08-20T23:31:12.467Z,14.46
2022-08-20T23:33:41.826Z,14.67
2022-08-20T23:36:12.360Z,14.54
2022-08-20T23:38:39.169Z,14.59
2022-08-20T23:41:05.908Z,14.60
2022-08-20T23:43:33.184Z,14.76
2022-08-20T23:46:02.571Z,14.75
2022-08-20T23:48:29.330Z,14.70
2022-08-20T23:50:55.892Z,14.71
2022-08-20T23:53:22.398Z,14.80
2022-08-20T23:55:48.975Z,14.58
2022-08-20T23:58:15.677Z,14.53
